sensor_id;sensor_type;location;lat;lon;timestamp;temperature;humidity
12977;DHT22;6553;48.412;9.514;2023-09-19T00:00:45;23.00;95.10
12977;DHT22;6553;48.412;9.514;2023-09-19T00:03:12;23.00;95.00
12977;DHT22;6553;48.412;9.514;2023-09-19T00:05:38;23.00;95.00
12977;DHT22;6553;48.412;9.514;2023-09-19T00:08:05;23.00;95.00
12977;DHT22;6553;48.412;9.514;2023-09-19T00:10:33;23.00;95.10
12977;DHT22;6553;48.412;9.514;2023-09-19T00:13:01;23.00;95.10
12977;DHT22;6553;48.412;9.514;2023-09-19T00:15:37;23.00;95.10
12977;DHT22;6553;48.412;9.514;2023-09-19T00:18:05;23.00;95.10
12977;DHT22;6553;48.412;9.514;2023-09-19T00:20:38;23.00;95.10
12977;DHT22;6553;48.412;9.514;2023-09-19T00:23:05;23.00;95.10
12977;DHT22;6553;48.412;9.514;2023-09-19T00:25:31;23.00;95.10
12977;DHT22;6553;48.412;9.514;2023-09-19T00:27:57;23.00;95.10
12977;DHT22;6553;48.412;9.514;2023-09-19T00:30:23;23.00;95.00
12977;DHT22;6553;48.412;9.514;2023-09-19T00:32:50;23.00;95.10
12977;DHT22;6553;48.412;9.514;2023-09-19T00:35:20;23.00;95.10
12977;DHT22;6553;48.412;9.514;2023-09-19T00:37:50;23.00;95.10
12977;DHT22;6553;48.412;9.514;2023-09-19T00:40:17;23.00;95.10
12977;DHT22;6553;48.412;9.514;2023-09-19T00:42:44;23.00;95.10
12977;DHT22;6553;48.412;9.514;2023-09-19T00:45:12;23.00;95.00
12977;DHT22;6553;48.412;9.514;2023-09-19T00:47:49;23.00;95.00
12977;DHT22;6553;48.412;9.514;2023-09-19T00:50:22;23.00;95.00
12977;DHT22;6553;48.412;9.514;2023-09-19T00:52:54;23.00;95.00
12977;DHT22;6553;48.412;9.514;2023-09-19T00:55:21;23.00;95.00
12977;DHT22;6553;48.412;9.514;2023-09-19T00:57:49;23.00;95.00
12977;DHT22;6553;48.412;9.514;2023-09-19T01:00:15;22.90;95.00
12977;DHT22;6553;48.412;9.514;2023-09-19T01:02:42;23.00;95.00
12977;DHT22;6553;48.412;9.514;2023-09-19T01:05:09;23.00;95.00
12977;DHT22;6553;48.412;9.514;2023-09-19T01:07:36;23.00;95.00
12977;DHT22;6553;48.412;9.514;2023-09-19T01:10:10;23.00;95.00
12977;DHT22;6553;48.412;9.514;2023-09-19T01:15:45;23.00;95.00
12977;DHT22;6553;48.412;9.514;2023-09-19T01:24:37;23.00;95.00
12977;DHT22;6553;48.412;9.514;2023-09-19T01:30:43;23.00;95.00
12977;DHT22;6553;48.412;9.514;2023-09-19T01:33:10;22.90;95.00
12977;DHT22;6553;48.412;9.514;2023-09-19T01:35:39;23.00;95.00
12977;DHT22;6553;48.412;9.514;2023-09-19T01:38:06;23.00;95.00
12977;DHT22;6553;48.412;9.514;2023-09-19T01:40:43;23.00;95.00
12977;DHT22;6553;48.412;9.514;2023-09-19T01:43:17;23.00;95.00
12977;DHT22;6553;48.412;9.514;2023-09-19T01:46:04;23.00;95.00
12977;DHT22;6553;48.412;9.514;2023-09-19T01:48:35;22.90;95.00
12977;DHT22;6553;48.412;9.514;2023-09-19T01:51:14;22.90;95.00
12977;DHT22;6553;48.412;9.514;2023-09-19T01:53:53;22.90;95.00
12977;DHT22;6553;48.412;9.514;2023-09-19T01:56:34;22.90;95.00
12977;DHT22;6553;48.412;9.514;2023-09-19T01:59:13;23.00;95.00
12977;DHT22;6553;48.412;9.514;2023-09-19T02:01:45;22.90;94.90
12977;DHT22;6553;48.412;9.514;2023-09-19T02:04:13;22.90;94.90
12977;DHT22;6553;48.412;9.514;2023-09-19T02:06:40;22.90;94.90
12977;DHT22;6553;48.412;9.514;2023-09-19T02:09:07;22.90;95.00
12977;DHT22;6553;48.412;9.514;2023-09-19T02:11:34;22.90;94.90
12977;DHT22;6553;48.412;9.514;2023-09-19T02:14:01;22.90;94.90
12977;DHT22;6553;48.412;9.514;2023-09-19T02:16:28;22.90;94.80
12977;DHT22;6553;48.412;9.514;2023-09-19T02:18:54;22.90;94.90
12977;DHT22;6553;48.412;9.514;2023-09-19T02:21:20;22.90;94.90
12977;DHT22;6553;48.412;9.514;2023-09-19T02:23:53;22.90;94.90
12977;DHT22;6553;48.412;9.514;2023-09-19T02:26:19;22.90;94.90
12977;DHT22;6553;48.412;9.514;2023-09-19T02:28:47;22.90;94.90
12977;DHT22;6553;48.412;9.514;2023-09-19T02:31:12;22.90;94.90
12977;DHT22;6553;48.412;9.514;2023-09-19T02:33:38;22.90;94.90
12977;DHT22;6553;48.412;9.514;2023-09-19T02:36:04;22.90;94.90
12977;DHT22;6553;48.412;9.514;2023-09-19T02:38:30;22.90;94.90
12977;DHT22;6553;48.412;9.514;2023-09-19T02:40:56;22.90;94.90
12977;DHT22;6553;48.412;9.514;2023-09-19T02:43:23;22.90;94.90
12977;DHT22;6553;48.412;9.514;2023-09-19T02:45:49;22.90;94.90
12977;DHT22;6553;48.412;9.514;2023-09-19T02:48:16;22.90;94.90
12977;DHT22;6553;48.412;9.514;2023-09-19T02:50:42;22.90;94.90
12977;DHT22;6553;48.412;9.514;2023-09-19T02:53:10;22.90;94.90
12977;DHT22;6553;48.412;9.514;2023-09-19T02:55:38;22.90;94.90
12977;DHT22;6553;48.412;9.514;2023-09-19T02:58:06;22.90;94.90
12977;DHT22;6553;48.412;9.514;2023-09-19T03:00:40;22.90;94.90
12977;DHT22;6553;48.412;9.514;2023-09-19T03:03:08;22.90;94.90
12977;DHT22;6553;48.412;9.514;2023-09-19T03:05:34;22.90;94.80
12977;DHT22;6553;48.412;9.514;2023-09-19T03:08:01;22.90;94.80
12977;DHT22;6553;48.412;9.514;2023-09-19T03:10:27;22.90;94.80
12977;DHT22;6553;48.412;9.514;2023-09-19T03:12:55;22.90;94.90
12977;DHT22;6553;48.412;9.514;2023-09-19T03:15:21;22.90;94.90
12977;DHT22;6553;48.412;9.514;2023-09-19T03:17:49;22.90;94.80
12977;DHT22;6553;48.412;9.514;2023-09-19T03:20:19;22.90;94.90
12977;DHT22;6553;48.412;9.514;2023-09-19T03:22:47;22.90;94.90
12977;DHT22;6553;48.412;9.514;2023-09-19T03:25:14;22.90;94.80
12977;DHT22;6553;48.412;9.514;2023-09-19T03:27:43;22.90;94.80
12977;DHT22;6553;48.412;9.514;2023-09-19T03:30:09;22.90;94.90
12977;DHT22;6553;48.412;9.514;2023-09-19T03:32:46;22.90;94.80
12977;DHT22;6553;48.412;9.514;2023-09-19T03:35:13;22.90;94.80
12977;DHT22;6553;48.412;9.514;2023-09-19T03:37:41;22.90;94.90
12977;DHT22;6553;48.412;9.514;2023-09-19T03:40:09;22.90;94.90
12977;DHT22;6553;48.412;9.514;2023-09-19T03:42:40;22.90;94.90
12977;DHT22;6553;48.412;9.514;2023-09-19T03:45:09;22.90;94.80
12977;DHT22;6553;48.412;9.514;2023-09-19T03:47:40;22.90;94.80
12977;DHT22;6553;48.412;9.514;2023-09-19T03:50:08;22.90;94.80
12977;DHT22;6553;48.412;9.514;2023-09-19T03:52:36;22.90;94.80
12977;DHT22;6553;48.412;9.514;2023-09-19T03:55:02;22.90;94.80
12977;DHT22;6553;48.412;9.514;2023-09-19T03:57:30;22.90;94.80
12977;DHT22;6553;48.412;9.514;2023-09-19T03:59:55;22.90;94.80
12977;DHT22;6553;48.412;9.514;2023-09-19T04:02:22;22.90;94.80
12977;DHT22;6553;48.412;9.514;2023-09-19T04:04:50;22.90;94.80
12977;DHT22;6553;48.412;9.514;2023-09-19T04:07:17;22.90;94.80
12977;DHT22;6553;48.412;9.514;2023-09-19T04:09:45;22.90;94.80
12977;DHT22;6553;48.412;9.514;2023-09-19T04:12:11;22.90;94.80
12977;DHT22;6553;48.412;9.514;2023-09-19T04:14:37;22.90;94.80
12977;DHT22;6553;48.412;9.514;2023-09-19T04:17:04;22.90;94.80
12977;DHT22;6553;48.412;9.514;2023-09-19T04:19:31;22.90;94.80
12977;DHT22;6553;48.412;9.514;2023-09-19T04:21:57;22.90;94.80
12977;DHT22;6553;48.412;9.514;2023-09-19T04:24:23;22.90;94.80
12977;DHT22;6553;48.412;9.514;2023-09-19T04:26:48;22.90;94.80
12977;DHT22;6553;48.412;9.514;2023-09-19T04:29:14;22.90;94.80
12977;DHT22;6553;48.412;9.514;2023-09-19T04:31:41;22.80;94.80
12977;DHT22;6553;48.412;9.514;2023-09-19T04:34:09;22.90;94.80
12977;DHT22;6553;48.412;9.514;2023-09-19T04:36:35;22.90;94.80
12977;DHT22;6553;48.412;9.514;2023-09-19T04:39:03;22.90;94.80
12977;DHT22;6553;48.412;9.514;2023-09-19T04:41:33;22.90;94.80
12977;DHT22;6553;48.412;9.514;2023-09-19T04:43:59;22.80;94.80
12977;DHT22;6553;48.412;9.514;2023-09-19T04:46:25;22.90;94.80
12977;DHT22;6553;48.412;9.514;2023-09-19T04:48:51;22.80;94.80
12977;DHT22;6553;48.412;9.514;2023-09-19T04:51:17;22.90;94.80
12977;DHT22;6553;48.412;9.514;2023-09-19T04:53:44;22.90;94.80
12977;DHT22;6553;48.412;9.514;2023-09-19T04:56:10;22.80;94.70
12977;DHT22;6553;48.412;9.514;2023-09-19T04:58:35;22.80;94.70
12977;DHT22;6553;48.412;9.514;2023-09-19T05:01:01;22.90;94.80
12977;DHT22;6553;48.412;9.514;2023-09-19T05:03:28;22.90;94.80
12977;DHT22;6553;48.412;9.514;2023-09-19T05:05:54;22.90;94.80
12977;DHT22;6553;48.412;9.514;2023-09-19T05:08:20;22.80;94.70
12977;DHT22;6553;48.412;9.514;2023-09-19T05:10:47;22.90;94.70
12977;DHT22;6553;48.412;9.514;2023-09-19T05:13:14;22.90;94.80
12977;DHT22;6553;48.412;9.514;2023-09-19T05:15:40;22.90;94.70
12977;DHT22;6553;48.412;9.514;2023-09-19T05:18:06;22.90;94.80
12977;DHT22;6553;48.412;9.514;2023-09-19T05:20:32;22.90;94.70
12977;DHT22;6553;48.412;9.514;2023-09-19T05:23:05;22.90;94.70
12977;DHT22;6553;48.412;9.514;2023-09-19T05:25:35;22.90;94.70
12977;DHT22;6553;48.412;9.514;2023-09-19T05:28:09;22.80;94.70
12977;DHT22;6553;48.412;9.514;2023-09-19T05:30:38;22.80;94.70
12977;DHT22;6553;48.412;9.514;2023-09-19T05:33:05;22.80;94.70
12977;DHT22;6553;48.412;9.514;2023-09-19T05:35:31;22.80;94.80
12977;DHT22;6553;48.412;9.514;2023-09-19T05:37:58;22.90;94.80
12977;DHT22;6553;48.412;9.514;2023-09-19T05:40:24;22.90;94.80
12977;DHT22;6553;48.412;9.514;2023-09-19T05:42:50;22.80;94.70
12977;DHT22;6553;48.412;9.514;2023-09-19T05:45:17;22.90;94.70
12977;DHT22;6553;48.412;9.514;2023-09-19T05:47:48;22.80;94.70
12977;DHT22;6553;48.412;9.514;2023-09-19T05:50:15;22.80;94.70
12977;DHT22;6553;48.412;9.514;2023-09-19T05:52:42;22.90;94.70
12977;DHT22;6553;48.412;9.514;2023-09-19T05:55:10;22.90;94.60
12977;DHT22;6553;48.412;9.514;2023-09-19T05:57:37;22.80;94.60
12977;DHT22;6553;48.412;9.514;2023-09-19T06:00:08;22.90;94.70
12977;DHT22;6553;48.412;9.514;2023-09-19T06:02:37;22.90;94.60
12977;DHT22;6553;48.412;9.514;2023-09-19T06:05:05;22.80;94.60
12977;DHT22;6553;48.412;9.514;2023-09-19T06:07:32;22.90;94.60
12977;DHT22;6553;48.412;9.514;2023-09-19T06:10:05;22.80;94.60
12977;DHT22;6553;48.412;9.514;2023-09-19T06:12:44;22.90;94.60
12977;DHT22;6553;48.412;9.514;2023-09-19T06:15:11;22.90;94.60
12977;DHT22;6553;48.412;9.514;2023-09-19T06:17:50;22.90;94.60
12977;DHT22;6553;48.412;9.514;2023-09-19T06:20:21;22.90;94.60
12977;DHT22;6553;48.412;9.514;2023-09-19T06:22:49;22.90;94.60
12977;DHT22;6553;48.412;9.514;2023-09-19T06:25:16;22.80;94.60
12977;DHT22;6553;48.412;9.514;2023-09-19T06:27:45;22.90;94.60
12977;DHT22;6553;48.412;9.514;2023-09-19T06:30:12;22.90;94.60
12977;DHT22;6553;48.412;9.514;2023-09-19T06:32:39;22.80;94.50
12977;DHT22;6553;48.412;9.514;2023-09-19T06:35:09;22.90;94.60
12977;DHT22;6553;48.412;9.514;2023-09-19T06:37:37;22.90;94.60
12977;DHT22;6553;48.412;9.514;2023-09-19T06:40:08;22.90;94.60
12977;DHT22;6553;48.412;9.514;2023-09-19T06:42:40;22.90;94.50
12977;DHT22;6553;48.412;9.514;2023-09-19T06:45:11;22.90;94.60
12977;DHT22;6553;48.412;9.514;2023-09-19T06:47:39;22.90;94.60
12977;DHT22;6553;48.412;9.514;2023-09-19T06:50:05;22.90;94.50
12977;DHT22;6553;48.412;9.514;2023-09-19T06:52:34;22.90;94.60
12977;DHT22;6553;48.412;9.514;2023-09-19T06:55:00;22.90;94.60
12977;DHT22;6553;48.412;9.514;2023-09-19T06:57:28;22.90;94.60
12977;DHT22;6553;48.412;9.514;2023-09-19T06:59:56;22.90;94.60
12977;DHT22;6553;48.412;9.514;2023-09-19T07:02:22;22.90;94.60
12977;DHT22;6553;48.412;9.514;2023-09-19T07:04:47;22.90;94.60
12977;DHT22;6553;48.412;9.514;2023-09-19T07:07:15;22.80;94.60
12977;DHT22;6553;48.412;9.514;2023-09-19T07:09:42;22.90;94.60
12977;DHT22;6553;48.412;9.514;2023-09-19T07:12:08;22.90;94.60
12977;DHT22;6553;48.412;9.514;2023-09-19T07:14:33;22.90;94.60
12977;DHT22;6553;48.412;9.514;2023-09-19T07:16:59;22.80;94.60
12977;DHT22;6553;48.412;9.514;2023-09-19T07:19:29;22.80;94.60
12977;DHT22;6553;48.412;9.514;2023-09-19T07:21:55;22.90;94.60
12977;DHT22;6553;48.412;9.514;2023-09-19T07:24:21;22.90;94.60
12977;DHT22;6553;48.412;9.514;2023-09-19T07:26:49;22.90;94.60
12977;DHT22;6553;48.412;9.514;2023-09-19T07:29:15;22.90;94.60
12977;DHT22;6553;48.412;9.514;2023-09-19T07:31:41;22.90;94.60
12977;DHT22;6553;48.412;9.514;2023-09-19T07:34:07;22.90;94.60
12977;DHT22;6553;48.412;9.514;2023-09-19T07:36:34;22.90;94.60
12977;DHT22;6553;48.412;9.514;2023-09-19T07:39:00;22.90;94.60
12977;DHT22;6553;48.412;9.514;2023-09-19T07:41:26;22.90;94.60
12977;DHT22;6553;48.412;9.514;2023-09-19T07:43:52;22.90;94.60
12977;DHT22;6553;48.412;9.514;2023-09-19T07:46:18;22.90;94.60
12977;DHT22;6553;48.412;9.514;2023-09-19T07:48:44;22.90;94.60
12977;DHT22;6553;48.412;9.514;2023-09-19T07:51:14;22.90;94.60
12977;DHT22;6553;48.412;9.514;2023-09-19T07:53:41;22.90;94.60
12977;DHT22;6553;48.412;9.514;2023-09-19T07:56:08;22.90;94.50
12977;DHT22;6553;48.412;9.514;2023-09-19T07:58:35;22.90;94.50
12977;DHT22;6553;48.412;9.514;2023-09-19T08:01:07;22.90;94.60
12977;DHT22;6553;48.412;9.514;2023-09-19T08:03:36;22.90;94.60
12977;DHT22;6553;48.412;9.514;2023-09-19T08:06:09;22.90;94.50
12977;DHT22;6553;48.412;9.514;2023-09-19T08:08:36;22.90;94.60
12977;DHT22;6553;48.412;9.514;2023-09-19T08:11:06;22.90;94.50
12977;DHT22;6553;48.412;9.514;2023-09-19T08:13:40;22.90;94.50
12977;DHT22;6553;48.412;9.514;2023-09-19T08:16:11;22.90;94.50
12977;DHT22;6553;48.412;9.514;2023-09-19T08:18:37;22.90;94.60
12977;DHT22;6553;48.412;9.514;2023-09-19T08:21:05;22.90;94.50
12977;DHT22;6553;48.412;9.514;2023-09-19T08:23:36;22.90;94.50
12977;DHT22;6553;48.412;9.514;2023-09-19T08:26:04;22.90;94.50
12977;DHT22;6553;48.412;9.514;2023-09-19T08:28:36;22.90;94.40
12977;DHT22;6553;48.412;9.514;2023-09-19T08:31:07;22.90;94.40
12977;DHT22;6553;48.412;9.514;2023-09-19T08:33:34;22.90;94.40
12977;DHT22;6553;48.412;9.514;2023-09-19T08:36:04;22.90;94.40
12977;DHT22;6553;48.412;9.514;2023-09-19T08:38:33;22.90;94.40
12977;DHT22;6553;48.412;9.514;2023-09-19T08:41:00;23.00;94.40
12977;DHT22;6553;48.412;9.514;2023-09-19T08:43:27;22.90;94.30
12977;DHT22;6553;48.412;9.514;2023-09-19T08:46:16;22.90;94.40
12977;DHT22;6553;48.412;9.514;2023-09-19T08:49:04;22.90;94.20
12977;DHT22;6553;48.412;9.514;2023-09-19T08:51:43;23.00;94.30
12977;DHT22;6553;48.412;9.514;2023-09-19T08:54:27;22.90;94.30
12977;DHT22;6553;48.412;9.514;2023-09-19T08:57:00;22.90;94.30
12977;DHT22;6553;48.412;9.514;2023-09-19T08:59:34;23.00;94.30
12977;DHT22;6553;48.412;9.514;2023-09-19T09:02:03;23.00;94.30
12977;DHT22;6553;48.412;9.514;2023-09-19T09:04:29;23.00;94.20
12977;DHT22;6553;48.412;9.514;2023-09-19T09:06:56;22.90;94.10
12977;DHT22;6553;48.412;9.514;2023-09-19T09:09:23;22.90;94.00
12977;DHT22;6553;48.412;9.514;2023-09-19T09:11:50;23.00;94.10
12977;DHT22;6553;48.412;9.514;2023-09-19T09:14:20;22.90;94.00
12977;DHT22;6553;48.412;9.514;2023-09-19T09:16:47;23.00;94.10
12977;DHT22;6553;48.412;9.514;2023-09-19T09:19:14;23.00;94.10
12977;DHT22;6553;48.412;9.514;2023-09-19T09:21:46;22.90;94.00
12977;DHT22;6553;48.412;9.514;2023-09-19T09:24:52;23.00;94.10
12977;DHT22;6553;48.412;9.514;2023-09-19T09:27:24;23.00;94.10
12977;DHT22;6553;48.412;9.514;2023-09-19T09:29:52;23.00;93.90
12977;DHT22;6553;48.412;9.514;2023-09-19T09:32:24;23.00;93.90
12977;DHT22;6553;48.412;9.514;2023-09-19T09:34:57;23.00;93.90
12977;DHT22;6553;48.412;9.514;2023-09-19T09:37:25;23.00;93.80
12977;DHT22;6553;48.412;9.514;2023-09-19T09:39:58;23.10;93.90
12977;DHT22;6553;48.412;9.514;2023-09-19T09:42:44;23.00;93.90
12977;DHT22;6553;48.412;9.514;2023-09-19T09:45:22;23.00;93.90
12977;DHT22;6553;48.412;9.514;2023-09-19T09:48:01;23.00;93.70
12977;DHT22;6553;48.412;9.514;2023-09-19T09:50:46;23.00;93.80
12977;DHT22;6553;48.412;9.514;2023-09-19T09:53:27;23.00;93.60
12977;DHT22;6553;48.412;9.514;2023-09-19T09:56:09;23.00;93.70
12977;DHT22;6553;48.412;9.514;2023-09-19T09:58:49;23.00;93.80
12977;DHT22;6553;48.412;9.514;2023-09-19T10:01:17;23.00;93.70
12977;DHT22;6553;48.412;9.514;2023-09-19T10:03:43;23.00;93.70
12977;DHT22;6553;48.412;9.514;2023-09-19T10:06:16;23.00;93.80
12977;DHT22;6553;48.412;9.514;2023-09-19T10:09:07;23.00;93.40
12977;DHT22;6553;48.412;9.514;2023-09-19T10:12:05;23.10;93.50
12977;DHT22;6553;48.412;9.514;2023-09-19T10:14:37;23.10;93.30
12977;DHT22;6553;48.412;9.514;2023-09-19T10:17:05;23.10;93.50
12977;DHT22;6553;48.412;9.514;2023-09-19T10:19:43;23.00;93.30
12977;DHT22;6553;48.412;9.514;2023-09-19T10:22:16;23.00;93.10
12977;DHT22;6553;48.412;9.514;2023-09-19T10:24:48;23.10;93.40
12977;DHT22;6553;48.412;9.514;2023-09-19T10:27:19;23.00;93.40
12977;DHT22;6553;48.412;9.514;2023-09-19T10:29:52;23.00;93.50
12977;DHT22;6553;48.412;9.514;2023-09-19T10:32:23;23.10;93.40
12977;DHT22;6553;48.412;9.514;2023-09-19T10:34:50;23.10;93.30
12977;DHT22;6553;48.412;9.514;2023-09-19T10:37:21;23.10;93.00
12977;DHT22;6553;48.412;9.514;2023-09-19T10:39:52;23.10;93.10
12977;DHT22;6553;48.412;9.514;2023-09-19T10:42:23;23.00;93.10
12977;DHT22;6553;48.412;9.514;2023-09-19T10:44:55;23.10;93.00
12977;DHT22;6553;48.412;9.514;2023-09-19T10:47:26;23.10;92.90
12977;DHT22;6553;48.412;9.514;2023-09-19T10:49:52;23.10;93.00
12977;DHT22;6553;48.412;9.514;2023-09-19T10:52:23;23.10;93.00
12977;DHT22;6553;48.412;9.514;2023-09-19T10:54:53;23.10;92.70
12977;DHT22;6553;48.412;9.514;2023-09-19T10:57:23;23.10;92.80
12977;DHT22;6553;48.412;9.514;2023-09-19T11:00:03;23.10;92.70
12977;DHT22;6553;48.412;9.514;2023-09-19T11:03:16;23.10;93.10
12977;DHT22;6553;48.412;9.514;2023-09-19T11:06:06;23.10;92.70
12977;DHT22;6553;48.412;9.514;2023-09-19T11:08:57;23.10;92.70
12977;DHT22;6553;48.412;9.514;2023-09-19T11:11:53;23.10;92.90
12977;DHT22;6553;48.412;9.514;2023-09-19T11:23:17;23.10;92.40
12977;DHT22;6553;48.412;9.514;2023-09-19T11:25:43;23.10;92.60
12977;DHT22;6553;48.412;9.514;2023-09-19T11:30:51;23.10;92.50
12977;DHT22;6553;48.412;9.514;2023-09-19T11:33:30;23.00;92.30
12977;DHT22;6553;48.412;9.514;2023-09-19T11:36:14;23.10;92.20
12977;DHT22;6553;48.412;9.514;2023-09-19T11:46:53;23.10;92.10
12977;DHT22;6553;48.412;9.514;2023-09-19T11:49:27;23.10;92.10
12977;DHT22;6553;48.412;9.514;2023-09-19T11:51:59;23.10;92.10
12977;DHT22;6553;48.412;9.514;2023-09-19T11:54:27;23.10;91.70
12977;DHT22;6553;48.412;9.514;2023-09-19T11:56:57;23.10;92.00
12977;DHT22;6553;48.412;9.514;2023-09-19T11:59:26;23.10;91.90
12977;DHT22;6553;48.412;9.514;2023-09-19T12:02:04;23.10;91.90
12977;DHT22;6553;48.412;9.514;2023-09-19T12:07:23;23.10;91.90
12977;DHT22;6553;48.412;9.514;2023-09-19T12:10:06;23.10;91.80
12977;DHT22;6553;48.412;9.514;2023-09-19T12:12:37;23.10;91.80
12977;DHT22;6553;48.412;9.514;2023-09-19T12:15:03;23.10;91.70
12977;DHT22;6553;48.412;9.514;2023-09-19T12:17:39;23.10;91.80
12977;DHT22;6553;48.412;9.514;2023-09-19T12:20:08;23.10;91.80
12977;DHT22;6553;48.412;9.514;2023-09-19T12:22:46;23.10;91.70
12977;DHT22;6553;48.412;9.514;2023-09-19T12:25:13;23.10;91.70
12977;DHT22;6553;48.412;9.514;2023-09-19T12:27:42;23.10;91.60
12977;DHT22;6553;48.412;9.514;2023-09-19T12:30:10;23.10;91.80
12977;DHT22;6553;48.412;9.514;2023-09-19T12:32:40;23.10;91.70
12977;DHT22;6553;48.412;9.514;2023-09-19T12:35:07;23.10;91.80
12977;DHT22;6553;48.412;9.514;2023-09-19T12:37:43;23.10;91.80
12977;DHT22;6553;48.412;9.514;2023-09-19T12:40:21;23.10;91.70
12977;DHT22;6553;48.412;9.514;2023-09-19T12:42:54;23.10;91.60
12977;DHT22;6553;48.412;9.514;2023-09-19T12:45:21;23.10;91.50
12977;DHT22;6553;48.412;9.514;2023-09-19T12:48:21;23.10;91.10
12977;DHT22;6553;48.412;9.514;2023-09-19T12:53:37;23.10;91.20
12977;DHT22;6553;48.412;9.514;2023-09-19T12:56:15;23.10;90.90
12977;DHT22;6553;48.412;9.514;2023-09-19T12:58:52;23.10;91.40
12977;DHT22;6553;48.412;9.514;2023-09-19T13:01:19;23.10;91.30
12977;DHT22;6553;48.412;9.514;2023-09-19T13:03:45;23.10;91.60
12977;DHT22;6553;48.412;9.514;2023-09-19T13:06:11;23.10;91.60
12977;DHT22;6553;48.412;9.514;2023-09-19T13:08:39;23.10;91.40
12977;DHT22;6553;48.412;9.514;2023-09-19T13:11:14;23.10;91.30
12977;DHT22;6553;48.412;9.514;2023-09-19T13:14:12;23.10;91.40
12977;DHT22;6553;48.412;9.514;2023-09-19T13:17:01;23.10;91.00
12977;DHT22;6553;48.412;9.514;2023-09-19T13:22:42;23.10;91.30
12977;DHT22;6553;48.412;9.514;2023-09-19T13:25:16;23.10;90.80
12977;DHT22;6553;48.412;9.514;2023-09-19T13:27:48;23.10;90.60
12977;DHT22;6553;48.412;9.514;2023-09-19T13:30:20;23.10;90.40
12977;DHT22;6553;48.412;9.514;2023-09-19T13:32:48;23.10;90.00
12977;DHT22;6553;48.412;9.514;2023-09-19T13:35:15;23.10;90.50
12977;DHT22;6553;48.412;9.514;2023-09-19T13:37:41;23.10;90.70
12977;DHT22;6553;48.412;9.514;2023-09-19T13:40:14;23.10;90.30
12977;DHT22;6553;48.412;9.514;2023-09-19T13:42:41;23.10;90.40
12977;DHT22;6553;48.412;9.514;2023-09-19T13:45:08;23.10;90.50
12977;DHT22;6553;48.412;9.514;2023-09-19T13:47:38;23.10;90.50
12977;DHT22;6553;48.412;9.514;2023-09-19T13:50:04;23.10;90.20
12977;DHT22;6553;48.412;9.514;2023-09-19T13:52:31;23.10;90.70
12977;DHT22;6553;48.412;9.514;2023-09-19T13:54:57;23.10;90.40
12977;DHT22;6553;48.412;9.514;2023-09-19T13:57:25;23.10;90.70
12977;DHT22;6553;48.412;9.514;2023-09-19T13:59:52;23.10;90.70
12977;DHT22;6553;48.412;9.514;2023-09-19T14:02:24;23.10;90.60
12977;DHT22;6553;48.412;9.514;2023-09-19T14:04:54;23.10;90.30
12977;DHT22;6553;48.412;9.514;2023-09-19T14:07:21;23.10;90.10
12977;DHT22;6553;48.412;9.514;2023-09-19T14:09:47;23.10;89.60
12977;DHT22;6553;48.412;9.514;2023-09-19T14:12:13;23.10;90.00
12977;DHT22;6553;48.412;9.514;2023-09-19T14:14:40;23.10;90.10
12977;DHT22;6553;48.412;9.514;2023-09-19T14:17:06;23.10;90.30
12977;DHT22;6553;48.412;9.514;2023-09-19T14:19:33;23.10;90.40
12977;DHT22;6553;48.412;9.514;2023-09-19T14:21:59;23.10;89.90
12977;DHT22;6553;48.412;9.514;2023-09-19T14:24:25;23.10;90.00
12977;DHT22;6553;48.412;9.514;2023-09-19T14:26:51;23.10;89.80
12977;DHT22;6553;48.412;9.514;2023-09-19T14:29:17;23.10;89.10
12977;DHT22;6553;48.412;9.514;2023-09-19T14:31:43;23.10;90.00
12977;DHT22;6553;48.412;9.514;2023-09-19T14:34:09;23.10;90.20
12977;DHT22;6553;48.412;9.514;2023-09-19T14:36:36;23.10;90.00
12977;DHT22;6553;48.412;9.514;2023-09-19T14:39:02;23.10;90.00
12977;DHT22;6553;48.412;9.514;2023-09-19T14:41:28;23.10;90.30
12977;DHT22;6553;48.412;9.514;2023-09-19T14:43:55;23.10;90.10
12977;DHT22;6553;48.412;9.514;2023-09-19T14:46:21;23.10;89.80
12977;DHT22;6553;48.412;9.514;2023-09-19T14:48:51;23.10;89.80
12977;DHT22;6553;48.412;9.514;2023-09-19T14:51:17;23.10;89.70
12977;DHT22;6553;48.412;9.514;2023-09-19T14:53:45;23.10;89.50
12977;DHT22;6553;48.412;9.514;2023-09-19T14:56:14;23.10;89.00
12977;DHT22;6553;48.412;9.514;2023-09-19T14:58:44;23.10;89.60
12977;DHT22;6553;48.412;9.514;2023-09-19T15:01:11;23.10;89.40
12977;DHT22;6553;48.412;9.514;2023-09-19T15:03:40;23.10;89.10
12977;DHT22;6553;48.412;9.514;2023-09-19T15:06:09;23.10;88.50
12977;DHT22;6553;48.412;9.514;2023-09-19T15:08:40;23.10;89.10
12977;DHT22;6553;48.412;9.514;2023-09-19T15:11:08;23.10;88.20
12977;DHT22;6553;48.412;9.514;2023-09-19T15:13:36;23.10;89.10
12977;DHT22;6553;48.412;9.514;2023-09-19T15:16:03;23.10;88.90
12977;DHT22;6553;48.412;9.514;2023-09-19T15:18:34;23.10;89.50
12977;DHT22;6553;48.412;9.514;2023-09-19T15:21:10;23.10;90.00
12977;DHT22;6553;48.412;9.514;2023-09-19T15:23:38;23.10;89.20
12977;DHT22;6553;48.412;9.514;2023-09-19T15:26:06;23.10;89.50
12977;DHT22;6553;48.412;9.514;2023-09-19T15:28:33;23.10;89.70
12977;DHT22;6553;48.412;9.514;2023-09-19T15:31:04;23.10;89.10
12977;DHT22;6553;48.412;9.514;2023-09-19T15:33:35;23.20;89.40
12977;DHT22;6553;48.412;9.514;2023-09-19T15:41:33;23.10;89.50
12977;DHT22;6553;48.412;9.514;2023-09-19T15:44:01;23.10;89.30
12977;DHT22;6553;48.412;9.514;2023-09-19T15:46:30;23.10;89.30
12977;DHT22;6553;48.412;9.514;2023-09-19T15:48:58;23.10;89.80
12977;DHT22;6553;48.412;9.514;2023-09-19T15:51:26;23.10;89.70
12977;DHT22;6553;48.412;9.514;2023-09-19T15:53:53;23.10;89.70
12977;DHT22;6553;48.412;9.514;2023-09-19T15:56:21;23.10;89.80
12977;DHT22;6553;48.412;9.514;2023-09-19T15:58:52;23.10;89.80
12977;DHT22;6553;48.412;9.514;2023-09-19T16:01:19;23.10;89.80
12977;DHT22;6553;48.412;9.514;2023-09-19T16:03:47;23.10;89.70
12977;DHT22;6553;48.412;9.514;2023-09-19T16:06:25;23.10;89.80
12977;DHT22;6553;48.412;9.514;2023-09-19T16:08:56;23.10;89.80
12977;DHT22;6553;48.412;9.514;2023-09-19T16:11:26;23.20;89.80
12977;DHT22;6553;48.412;9.514;2023-09-19T16:13:53;23.10;89.80
12977;DHT22;6553;48.412;9.514;2023-09-19T16:16:21;23.10;89.40
12977;DHT22;6553;48.412;9.514;2023-09-19T16:18:53;23.10;89.40
12977;DHT22;6553;48.412;9.514;2023-09-19T16:21:24;23.10;89.50
12977;DHT22;6553;48.412;9.514;2023-09-19T16:23:52;23.10;89.90
12977;DHT22;6553;48.412;9.514;2023-09-19T16:26:20;23.10;89.70
12977;DHT22;6553;48.412;9.514;2023-09-19T16:28:49;23.10;89.90
12977;DHT22;6553;48.412;9.514;2023-09-19T16:31:15;23.10;89.90
12977;DHT22;6553;48.412;9.514;2023-09-19T16:33:43;23.10;89.80
12977;DHT22;6553;48.412;9.514;2023-09-19T16:36:18;23.10;90.00
12977;DHT22;6553;48.412;9.514;2023-09-19T16:38:45;23.10;90.00
12977;DHT22;6553;48.412;9.514;2023-09-19T16:41:16;23.10;90.00
12977;DHT22;6553;48.412;9.514;2023-09-19T16:43:43;23.10;90.00
12977;DHT22;6553;48.412;9.514;2023-09-19T16:46:10;23.10;89.90
12977;DHT22;6553;48.412;9.514;2023-09-19T16:48:39;23.10;90.00